createdAt,value
2019-06-20T00:00:39.123Z,35.52
2019-06-20T00:03:05.301Z,34.94
2019-06-20T00:05:32.416Z,34.79
2019-06-20T00:07:58.574Z,35.10
2019-06-20T00:10:24.773Z,36.64
2019-06-20T00:13:00.041Z,35.82
2019-06-20T00:15:18.993Z,35.85
2019-06-20T00:17:45.168Z,36.46
2019-06-20T00:20:11.375Z,37.30
2019-06-20T00:22:37.527Z,36.52
2019-06-20T00:25:04.277Z,36.51
2019-06-20T00:27:30.489Z,36.74
2019-06-20T00:29:56.642Z,36.83
2019-06-20T00:32:22.821Z,36.59
2019-06-20T00:34:49.025Z,35.79
2019-06-20T00:37:15.169Z,36.85
2019-06-20T00:39:41.320Z,38.94
2019-06-20T00:42:07.559Z,38.60
2019-06-20T00:44:33.738Z,38.06
2019-06-20T00:46:59.883Z,37.57
2019-06-20T00:49:26.146Z,37.10
2019-06-20T00:51:52.408Z,37.03
2019-06-20T00:54:18.559Z,37.13
2019-06-20T00:56:44.768Z,37.21
2019-06-20T00:59:10.922Z,37.55
2019-06-20T01:01:37.109Z,37.64
2019-06-20T01:04:03.340Z,38.58
2019-06-20T01:06:29.571Z,37.17
2019-06-20T01:08:55.758Z,36.68
2019-06-20T01:11:21.967Z,36.27
2019-06-20T01:13:48.125Z,36.17
2019-06-20T01:16:15.220Z,37.67
2019-06-20T01:18:41.490Z,37.87
2019-06-20T01:21:07.692Z,37.52
2019-06-20T01:23:34.205Z,36.79
2019-06-20T01:26:00.423Z,36.60
2019-06-20T01:28:26.560Z,36.47
2019-06-20T01:30:52.767Z,36.31
2019-06-20T01:33:18.961Z,36.29
2019-06-20T01:35:46.209Z,36.79
2019-06-20T01:38:12.363Z,36.63
2019-06-20T01:40:38.676Z,35.98
2019-06-20T01:43:04.848Z,36.53
2019-06-20T01:45:31.000Z,36.30
2019-06-20T01:47:57.206Z,35.94
2019-06-20T01:50:23.464Z,36.37
2019-06-20T01:52:49.619Z,36.42
2019-06-20T01:55:15.843Z,37.09
2019-06-20T01:57:42.014Z,37.43
2019-06-20T02:00:10.465Z,37.22
2019-06-20T02:02:36.651Z,37.71
2019-06-20T02:05:06.127Z,37.97
2019-06-20T02:07:32.275Z,37.55
2019-06-20T02:09:58.474Z,37.43
2019-06-20T02:12:24.689Z,38.22
2019-06-20T02:14:50.896Z,38.50
2019-06-20T02:17:17.209Z,37.97
2019-06-20T02:19:43.349Z,37.43
2019-06-20T02:22:09.510Z,37.01
2019-06-20T02:24:35.817Z,36.94
2019-06-20T02:27:02.296Z,37.27
2019-06-20T02:29:28.464Z,36.93
2019-06-20T02:31:54.681Z,36.92
2019-06-20T02:34:20.863Z,36.67
2019-06-20T02:36:47.912Z,36.23
2019-06-20T02:39:14.088Z,36.18
2019-06-20T02:41:40.258Z,36.70
2019-06-20T02:44:06.515Z,37.25
2019-06-20T02:46:32.742Z,38.70
2019-06-20T02:48:58.885Z,38.31
2019-06-20T02:51:25.632Z,37.74
2019-06-20T02:53:51.945Z,37.09
2019-06-20T02:56:18.218Z,36.80
2019-06-20T02:58:44.379Z,35.01
2019-06-20T03:01:10.577Z,34.70
2019-06-20T03:03:36.752Z,35.14
2019-06-20T03:06:03.426Z,33.97
2019-06-20T03:08:29.719Z,33.39
2019-06-20T03:10:55.886Z,31.70
2019-06-20T03:13:22.046Z,30.60
2019-06-20T03:15:50.092Z,30.15
2019-06-20T03:18:16.308Z,28.76
2019-06-20T03:20:42.481Z,28.10
2019-06-20T03:23:08.661Z,28.59
2019-06-20T03:25:34.843Z,28.21
2019-06-20T03:28:00.982Z,26.75
2019-06-20T03:30:27.186Z,25.54
2019-06-20T03:32:53.366Z,24.28
2019-06-20T03:35:19.512Z,23.79
2019-06-20T03:37:45.736Z,24.15
2019-06-20T03:40:12.694Z,25.59
2019-06-20T03:42:38.843Z,26.47
2019-06-20T03:45:05.766Z,27.12
2019-06-20T03:47:31.915Z,26.55
2019-06-20T03:49:58.074Z,24.96
2019-06-20T03:52:24.332Z,23.72
2019-06-20T03:54:50.471Z,22.45
2019-06-20T03:57:16.623Z,22.50
2019-06-20T03:59:42.822Z,21.87
2019-06-20T04:02:08.994Z,21.07
2019-06-20T04:04:35.148Z,20.19
2019-06-20T04:07:01.360Z,19.38
2019-06-20T04:09:27.530Z,19.06
2019-06-20T04:11:53.686Z,19.62
2019-06-20T04:14:19.878Z,19.27
2019-06-20T04:16:46.052Z,18.72
2019-06-20T04:19:12.444Z,18.19
2019-06-20T04:21:38.637Z,17.16
2019-06-20T04:24:04.942Z,16.79
2019-06-20T04:26:31.114Z,15.79
2019-06-20T04:28:57.307Z,15.18
2019-06-20T04:31:23.480Z,15.08
2019-06-20T04:33:49.666Z,15.39
2019-06-20T04:36:15.872Z,14.57
2019-06-20T04:38:42.026Z,14.77
2019-06-20T04:41:08.225Z,14.67
2019-06-20T04:43:34.493Z,14.82
2019-06-20T04:48:50.854Z,17.27
2019-06-20T04:51:17.004Z,19.39
2019-06-20T04:53:43.186Z,19.40
2019-06-20T04:56:09.387Z,22.03
2019-06-20T04:58:35.555Z,24.02
2019-06-20T05:01:01.789Z,24.69
2019-06-20T05:03:28.020Z,24.37
2019-06-20T05:05:54.205Z,25.11
2019-06-20T05:08:20.360Z,23.95
2019-06-20T05:10:46.552Z,23.75
2019-06-20T05:13:12.711Z,23.91
2019-06-20T05:15:52.000Z,22.90
2019-06-20T05:18:06.991Z,21.66
2019-06-20T05:20:33.446Z,20.09
2019-06-20T05:22:59.728Z,20.11
2019-06-20T05:25:25.932Z,20.18
2019-06-20T05:27:52.099Z,20.89
2019-06-20T05:30:18.512Z,20.65
2019-06-20T05:32:44.720Z,21.41
2019-06-20T05:35:10.878Z,20.04
2019-06-20T05:37:37.057Z,19.68
2019-06-20T05:40:06.073Z,20.46
2019-06-20T05:42:32.229Z,19.90
2019-06-20T05:44:58.406Z,18.83
2019-06-20T05:47:24.606Z,19.25
2019-06-20T05:49:50.818Z,20.23
2019-06-20T05:52:17.493Z,19.40
2019-06-20T05:54:43.843Z,20.12
2019-06-20T05:57:10.122Z,19.39
2019-06-20T05:59:36.278Z,19.83
2019-06-20T06:02:02.596Z,19.02
2019-06-20T06:04:28.921Z,19.81
2019-06-20T06:06:55.097Z,20.75
2019-06-20T06:09:21.422Z,21.88
2019-06-20T06:11:49.399Z,21.33
2019-06-20T06:14:15.575Z,20.64
2019-06-20T06:16:44.111Z,20.23
2019-06-20T06:19:12.259Z,19.41
2019-06-20T06:21:39.776Z,18.65
2019-06-20T06:24:08.084Z,19.53
2019-06-20T06:26:34.240Z,20.77
2019-06-20T06:29:03.710Z,21.11
2019-06-20T06:31:30.310Z,19.90
2019-06-20T06:33:56.482Z,18.58
2019-06-20T06:36:22.647Z,19.39
2019-06-20T06:38:48.850Z,19.38
2019-06-20T06:41:16.256Z,19.00
2019-06-20T06:43:42.504Z,18.53
2019-06-20T06:46:08.815Z,19.62
2019-06-20T06:48:35.086Z,19.58
2019-06-20T06:51:01.561Z,21.42
2019-06-20T06:53:28.168Z,21.16
2019-06-20T06:55:54.375Z,22.37
2019-06-20T06:58:20.519Z,20.97
2019-06-20T07:00:48.952Z,21.20
2019-06-20T07:03:15.492Z,20.56
2019-06-20T07:05:42.192Z,19.26
2019-06-20T07:08:09.563Z,21.46
2019-06-20T07:10:35.752Z,22.29
2019-06-20T07:13:04.098Z,20.95
2019-06-20T07:15:33.548Z,23.28
2019-06-20T07:17:59.832Z,22.78
2019-06-20T07:20:27.184Z,24.95
2019-06-20T07:22:53.793Z,24.95
2019-06-20T07:25:20.354Z,24.63
2019-06-20T07:27:46.514Z,22.52
2019-06-20T07:30:13.086Z,22.83
2019-06-20T07:32:39.402Z,23.18
2019-06-20T07:35:06.615Z,25.50
2019-06-20T07:37:32.824Z,25.80
2019-06-20T07:39:59.067Z,25.23
2019-06-20T07:42:25.234Z,25.88
2019-06-20T07:44:51.449Z,25.16
2019-06-20T07:47:18.252Z,24.11
2019-06-20T07:49:44.593Z,24.56
2019-06-20T07:52:10.810Z,26.07
2019-06-20T07:54:37.109Z,26.12
2019-06-20T07:57:03.297Z,24.76
2019-06-20T07:59:29.517Z,25.17
2019-06-20T08:01:55.693Z,23.32
2019-06-20T08:04:21.839Z,25.03
2019-06-20T08:06:48.050Z,24.60
2019-06-20T08:09:14.235Z,24.84
2019-06-20T08:11:40.389Z,22.66
2019-06-20T08:14:06.854Z,21.74
2019-06-20T08:16:33.178Z,22.40
2019-06-20T08:18:59.553Z,21.69
2019-06-20T08:21:25.761Z,21.51
2019-06-20T08:23:51.986Z,22.95
2019-06-20T08:26:18.145Z,23.85
2019-06-20T08:28:44.329Z,21.84
2019-06-20T08:31:10.607Z,20.57
2019-06-20T08:33:40.408Z,21.80
2019-06-20T08:36:06.801Z,20.85
2019-06-20T08:38:33.026Z,20.01
2019-06-20T08:41:00.209Z,20.14
2019-06-20T08:43:27.859Z,22.32
2019-06-20T08:45:56.123Z,24.25
2019-06-20T08:48:22.092Z,22.42
2019-06-20T08:50:48.311Z,21.47
2019-06-20T08:53:14.483Z,20.76
2019-06-20T08:55:40.838Z,19.74
2019-06-20T08:58:07.256Z,20.28
2019-06-20T09:00:35.710Z,22.14
2019-06-20T09:05:30.742Z,19.91
2019-06-20T09:07:59.048Z,19.12
2019-06-20T09:10:38.776Z,19.67
2019-06-20T09:13:05.036Z,21.17
2019-06-20T09:15:31.222Z,21.05
2019-06-20T09:17:58.462Z,19.80
2019-06-20T09:20:25.197Z,20.78
2019-06-20T09:22:52.299Z,20.51
2019-06-20T09:25:20.354Z,20.72
2019-06-20T09:27:46.515Z,19.87
2019-06-20T09:30:13.196Z,20.14
2019-06-20T09:32:39.408Z,19.31
2019-06-20T09:35:07.660Z,18.10
2019-06-20T09:37:33.946Z,17.81
2019-06-20T09:40:00.147Z,19.73
2019-06-20T09:42:26.412Z,19.95
2019-06-20T09:44:52.671Z,20.35
2019-06-20T09:47:18.930Z,19.05
2019-06-20T09:49:49.040Z,18.69
2019-06-20T09:52:13.140Z,18.87
2019-06-20T09:54:39.368Z,18.99
2019-06-20T09:57:05.530Z,18.78
2019-06-20T09:59:31.710Z,18.92
2019-06-20T10:01:58.837Z,17.91
2019-06-20T10:04:25.309Z,18.53
2019-06-20T10:06:52.299Z,17.63
2019-06-20T10:09:18.715Z,15.77
2019-06-20T10:11:45.334Z,15.91
2019-06-20T10:14:13.045Z,16.42
2019-06-20T10:16:45.631Z,15.88
2019-06-20T10:19:07.314Z,15.13
2019-06-20T10:21:33.494Z,15.30
2019-06-20T10:23:59.687Z,15.53
2019-06-20T10:26:27.185Z,16.35
2019-06-20T10:28:53.365Z,17.88
2019-06-20T10:31:19.582Z,17.02
2019-06-20T10:33:46.861Z,17.69
2019-06-20T10:36:13.324Z,18.00
2019-06-20T10:38:39.510Z,17.96
2019-06-20T10:41:05.671Z,17.02
2019-06-20T10:43:31.965Z,17.37
2019-06-20T10:45:58.172Z,17.49
2019-06-20T10:48:24.333Z,17.95
2019-06-20T10:50:50.492Z,16.64
2019-06-20T10:53:16.710Z,15.71
2019-06-20T10:55:43.360Z,14.82
2019-06-20T10:58:10.350Z,14.52
2019-06-20T11:00:36.682Z,13.50
2019-06-20T11:03:03.046Z,13.54
2019-06-20T11:05:29.195Z,13.11
2019-06-20T11:07:55.404Z,13.70
2019-06-20T11:10:21.898Z,16.30
2019-06-20T11:12:53.831Z,16.41
2019-06-20T11:15:17.475Z,17.94
2019-06-20T11:17:44.176Z,16.48
2019-06-20T11:20:12.899Z,15.14
2019-06-20T11:22:39.809Z,17.61
2019-06-20T11:25:08.368Z,17.94
2019-06-20T11:27:34.555Z,18.09
2019-06-20T11:30:00.773Z,17.70
2019-06-20T11:32:26.947Z,17.67
2019-06-20T11:34:53.111Z,16.81
2019-06-20T11:37:19.300Z,17.35
2019-06-20T11:39:45.452Z,17.45
2019-06-20T11:42:11.623Z,16.33
2019-06-20T11:44:40.899Z,16.13
2019-06-20T11:47:07.035Z,15.38
2019-06-20T11:49:34.546Z,14.54
2019-06-20T11:52:01.326Z,16.07
2019-06-20T11:54:27.480Z,14.99
2019-06-20T11:56:53.666Z,14.94
2019-06-20T11:59:19.969Z,15.12
2019-06-20T12:01:47.242Z,14.78
2019-06-20T12:04:13.680Z,15.29
2019-06-20T12:06:41.409Z,16.19
2019-06-20T12:09:07.965Z,16.01
2019-06-20T12:11:40.636Z,16.40
2019-06-20T12:14:07.046Z,17.00
2019-06-20T12:16:33.194Z,16.41
2019-06-20T12:18:59.351Z,15.24
2019-06-20T12:21:25.560Z,15.42
2019-06-20T12:23:51.740Z,15.83
2019-06-20T12:26:17.897Z,14.61
2019-06-20T12:28:44.717Z,14.58
2019-06-20T12:31:19.587Z,13.85
2019-06-20T12:33:39.704Z,13.72
2019-06-20T12:36:07.197Z,15.42
2019-06-20T12:38:33.376Z,15.55
2019-06-20T12:40:59.554Z,15.83
2019-06-20T12:43:25.851Z,15.38
2019-06-20T12:45:51.991Z,15.17
2019-06-20T12:48:18.162Z,14.87
2019-06-20T12:50:45.076Z,14.48
2019-06-20T12:53:11.662Z,13.67
2019-06-20T12:55:38.919Z,13.70
2019-06-20T12:58:05.946Z,14.29
2019-06-20T13:00:34.023Z,15.37
2019-06-20T13:03:00.234Z,16.18
2019-06-20T13:05:26.640Z,16.05
2019-06-20T13:07:52.794Z,15.59
2019-06-20T13:10:19.760Z,16.00
2019-06-20T13:12:46.421Z,14.99
2019-06-20T13:15:13.126Z,14.87
2019-06-20T13:17:39.983Z,16.45
2019-06-20T13:20:08.011Z,15.82
2019-06-20T13:22:34.187Z,15.91
2019-06-20T13:25:00.335Z,14.54
2019-06-20T13:27:26.537Z,13.91
2019-06-20T13:29:52.872Z,14.50
2019-06-20T13:32:19.034Z,14.35
2019-06-20T13:34:46.879Z,12.86
2019-06-20T13:37:15.547Z,12.30
2019-06-20T13:39:41.650Z,12.75
2019-06-20T13:42:09.337Z,13.23
2019-06-20T13:44:35.502Z,14.11
2019-06-20T13:47:01.683Z,13.72
2019-06-20T13:49:27.877Z,15.78
2019-06-20T13:51:54.054Z,16.27
2019-06-20T13:54:20.258Z,15.51
2019-06-20T13:56:47.509Z,15.92
2019-06-20T13:59:13.908Z,16.31
2019-06-20T14:01:41.491Z,16.53
2019-06-20T14:04:08.213Z,16.24
2019-06-20T14:06:34.378Z,17.05
2019-06-20T14:09:00.552Z,15.85
2019-06-20T14:11:26.756Z,15.77
2019-06-20T14:13:53.161Z,17.34
2019-06-20T14:16:19.472Z,16.55
2019-06-20T14:18:46.537Z,16.57
2019-06-20T14:21:13.080Z,16.61
2019-06-20T14:23:39.243Z,17.00
2019-06-20T14:26:05.447Z,16.71
2019-06-20T14:28:31.618Z,15.81
2019-06-20T14:30:58.000Z,15.28
2019-06-20T14:33:24.238Z,15.35
2019-06-20T14:35:51.215Z,15.17
2019-06-20T14:38:17.563Z,14.60
2019-06-20T14:40:45.282Z,15.86
2019-06-20T14:43:11.739Z,15.19
2019-06-20T14:45:38.682Z,14.88
2019-06-20T14:48:04.900Z,14.94
2019-06-20T14:50:31.056Z,16.63
2019-06-20T14:52:57.229Z,15.60
2019-06-20T14:55:23.430Z,14.93
2019-06-20T14:57:50.505Z,16.00
2019-06-20T15:00:18.101Z,17.23
2019-06-20T15:02:45.757Z,26.76
2019-06-20T15:05:14.556Z,29.42
2019-06-20T15:07:40.819Z,29.75
2019-06-20T15:10:07.241Z,32.59
2019-06-20T15:12:33.386Z,30.61
2019-06-20T15:14:59.549Z,31.13
2019-06-20T15:17:25.759Z,31.19
2019-06-20T15:19:51.923Z,30.52
2019-06-20T15:22:18.106Z,28.93
2019-06-20T15:24:46.647Z,27.81
2019-06-20T15:27:12.479Z,27.31
2019-06-20T15:29:38.665Z,26.37
2019-06-20T15:32:04.946Z,24.90
2019-06-20T15:34:31.112Z,25.09
2019-06-20T15:36:57.770Z,25.39
2019-06-20T15:39:24.321Z,27.86
2019-06-20T15:41:51.622Z,27.47
2019-06-20T15:44:18.063Z,28.61
2019-06-20T15:46:44.279Z,29.46
2019-06-20T15:49:16.014Z,29.06
2019-06-20T15:51:38.675Z,30.80
2019-06-20T15:54:04.869Z,30.80
2019-06-20T15:56:31.075Z,29.35
2019-06-20T15:58:57.213Z,28.17
2019-06-20T16:01:23.446Z,29.87
2019-06-20T16:03:49.717Z,29.93
2019-06-20T16:06:15.879Z,30.95
2019-06-20T16:08:42.077Z,30.95
2019-06-20T16:11:08.233Z,31.05
2019-06-20T16:13:34.393Z,28.76
2019-06-20T16:16:00.606Z,29.15
2019-06-20T16:18:26.772Z,29.76
2019-06-20T16:20:52.938Z,28.65
2019-06-20T16:23:19.136Z,28.47
2019-06-20T16:25:45.329Z,29.11
2019-06-20T16:28:11.488Z,29.11
2019-06-20T16:30:37.700Z,27.97
2019-06-20T16:33:04.030Z,28.76
2019-06-20T16:35:30.208Z,30.31
2019-06-20T16:37:56.426Z,30.31
2019-06-20T16:40:44.015Z,30.21
2019-06-20T16:43:10.207Z,30.68
2019-06-20T16:45:36.377Z,31.37
2019-06-20T16:48:02.533Z,31.90
2019-06-20T16:50:28.740Z,31.24
2019-06-20T16:52:54.920Z,31.82
2019-06-20T16:55:21.095Z,30.85
2019-06-20T16:57:47.299Z,30.29
2019-06-20T17:00:13.780Z,30.30
2019-06-20T17:02:39.941Z,29.44
2019-06-20T17:05:07.036Z,30.18
2019-06-20T17:07:33.521Z,31.00
2019-06-20T17:09:59.664Z,31.12
2019-06-20T17:12:25.854Z,31.76
2019-06-20T17:14:52.038Z,32.57
2019-06-20T17:17:18.205Z,32.48
2019-06-20T17:19:44.396Z,31.80
2019-06-20T17:22:10.531Z,31.92
2019-06-20T17:24:36.713Z,31.14
2019-06-20T17:27:03.097Z,32.03
2019-06-20T17:29:29.271Z,32.28
2019-06-20T17:31:57.498Z,31.79
2019-06-20T17:34:23.755Z,31.45
2019-06-20T17:36:49.906Z,30.99
2019-06-20T17:39:16.078Z,30.93
2019-06-20T17:41:54.372Z,31.17
2019-06-20T17:44:10.478Z,31.11
2019-06-20T17:46:36.665Z,31.96
2019-06-20T17:49:02.972Z,31.00
2019-06-20T17:51:29.135Z,30.64
2019-06-20T17:53:55.381Z,30.29
2019-06-20T17:56:21.586Z,30.84
2019-06-20T17:58:47.825Z,31.25
2019-06-20T18:01:14.025Z,31.97
2019-06-20T18:03:40.211Z,32.72
2019-06-20T18:06:06.396Z,33.07
2019-06-20T18:08:32.544Z,32.57
2019-06-20T18:10:58.743Z,32.18
2019-06-20T18:13:24.923Z,34.08
2019-06-20T18:15:51.154Z,36.19
2019-06-20T18:18:17.391Z,34.72
2019-06-20T18:20:43.560Z,34.61
2019-06-20T18:23:09.739Z,33.41
2019-06-20T18:25:35.936Z,32.66
2019-06-20T18:28:02.242Z,33.47
2019-06-20T18:30:40.596Z,33.12
2019-06-20T18:33:06.768Z,32.39
2019-06-20T18:35:33.073Z,31.66
2019-06-20T18:37:59.283Z,31.62
2019-06-20T18:40:25.476Z,32.05
2019-06-20T18:42:51.643Z,31.84
2019-06-20T18:45:19.683Z,31.97
2019-06-20T18:47:45.844Z,32.57
2019-06-20T18:50:12.527Z,32.60
2019-06-20T18:52:51.728Z,32.88
2019-06-20T18:55:07.973Z,33.78
2019-06-20T18:57:34.154Z,33.55
2019-06-20T19:00:00.495Z,32.79
2019-06-20T19:02:26.858Z,32.49
2019-06-20T19:04:53.159Z,32.69
2019-06-20T19:07:19.445Z,33.65
2019-06-20T19:09:45.754Z,33.01
2019-06-20T19:12:12.311Z,34.86
2019-06-20T19:14:38.777Z,35.73
2019-06-20T19:17:05.117Z,35.18
2019-06-20T19:19:31.508Z,34.65
2019-06-20T19:21:57.791Z,34.76
2019-06-20T19:24:24.063Z,33.99
2019-06-20T19:26:50.653Z,33.60
2019-06-20T19:29:16.875Z,34.27
2019-06-20T19:31:43.028Z,33.92
2019-06-20T19:34:09.192Z,32.96
2019-06-20T19:36:35.692Z,32.75
2019-06-20T19:39:01.859Z,32.59
2019-06-20T19:41:28.008Z,33.48
2019-06-20T19:43:54.224Z,34.00
2019-06-20T19:46:20.375Z,33.82
2019-06-20T19:48:46.637Z,35.45
2019-06-20T19:51:12.841Z,35.79
2019-06-20T19:53:39.109Z,35.58
2019-06-20T19:56:05.264Z,35.54
2019-06-20T19:58:31.572Z,35.57
2019-06-20T20:00:57.745Z,35.51
2019-06-20T20:03:23.888Z,36.32
2019-06-20T20:05:50.098Z,36.32
2019-06-20T20:08:16.685Z,35.35
2019-06-20T20:10:44.643Z,33.90
2019-06-20T20:13:10.942Z,34.06
2019-06-20T20:15:37.120Z,34.66
2019-06-20T20:18:03.398Z,34.40
2019-06-20T20:20:29.584Z,34.35
2019-06-20T20:22:55.773Z,34.53
2019-06-20T20:25:21.935Z,35.09
2019-06-20T20:27:48.122Z,34.90
2019-06-20T20:30:16.407Z,34.34
2019-06-20T20:32:45.596Z,34.68
2019-06-20T20:35:11.823Z,34.08
2019-06-20T20:37:38.030Z,34.14
2019-06-20T20:40:08.227Z,34.87
2019-06-20T20:42:34.410Z,34.96
2019-06-20T20:45:00.564Z,34.32
2019-06-20T20:47:28.494Z,35.01
2019-06-20T20:49:54.828Z,35.16
2019-06-20T20:52:21.863Z,34.71
2019-06-20T20:54:50.153Z,34.66
2019-06-20T20:57:16.327Z,35.18
2019-06-20T20:59:42.506Z,34.79
2019-06-20T21:02:08.784Z,34.59
2019-06-20T21:04:35.072Z,36.75
2019-06-20T21:07:01.244Z,36.73
2019-06-20T21:09:27.398Z,36.25
2019-06-20T21:11:53.645Z,35.93
2019-06-20T21:14:19.839Z,35.90
2019-06-20T21:16:46.010Z,36.25
2019-06-20T21:19:12.188Z,35.41
2019-06-20T21:21:38.372Z,35.37
2019-06-20T21:24:04.593Z,35.71
2019-06-20T21:26:30.932Z,37.86
2019-06-20T21:28:57.110Z,38.19
2019-06-20T21:31:23.300Z,37.30
2019-06-20T21:33:49.533Z,36.16
2019-06-20T21:36:15.701Z,35.72
2019-06-20T21:38:41.937Z,35.96
2019-06-20T21:41:08.127Z,36.42
2019-06-20T21:43:34.305Z,37.14
2019-06-20T21:46:00.501Z,37.29
2019-06-20T21:48:26.661Z,36.93
2019-06-20T21:50:52.835Z,36.67
2019-06-20T21:53:19.025Z,36.94
2019-06-20T21:55:45.187Z,36.87
2019-06-20T21:58:11.426Z,36.52
2019-06-20T22:00:43.132Z,36.24
2019-06-20T22:03:09.741Z,36.23
2019-06-20T22:05:36.213Z,35.90
2019-06-20T22:08:02.871Z,36.19
2019-06-20T22:10:29.052Z,38.50
2019-06-20T22:12:55.227Z,38.47
2019-06-20T22:15:21.406Z,37.23
2019-06-20T22:17:47.583Z,36.86
2019-06-20T22:20:14.467Z,36.91
2019-06-20T22:22:40.612Z,37.11
2019-06-20T22:25:07.539Z,37.00
2019-06-20T22:27:33.690Z,37.71
2019-06-20T22:30:03.467Z,40.26
2019-06-20T22:32:28.052Z,40.11
2019-06-20T22:34:54.209Z,38.92
2019-06-20T22:37:20.408Z,38.26
2019-06-20T22:39:46.672Z,38.29
2019-06-20T22:42:12.848Z,38.36
2019-06-20T22:44:39.017Z,38.08
2019-06-20T22:47:05.215Z,38.65
2019-06-20T22:49:31.467Z,38.00
2019-06-20T22:51:57.663Z,38.14
2019-06-20T22:54:23.868Z,37.67
2019-06-20T22:56:50.025Z,37.42
2019-06-20T22:59:16.197Z,37.61
2019-06-20T23:01:42.384Z,38.75
2019-06-20T23:04:08.540Z,38.67
2019-06-20T23:06:34.820Z,37.85
2019-06-20T23:09:01.007Z,37.63
2019-06-20T23:11:27.180Z,37.11
2019-06-20T23:13:53.350Z,37.11
2019-06-20T23:16:19.640Z,36.97
2019-06-20T23:18:45.809Z,36.92
2019-06-20T23:21:11.959Z,36.96
2019-06-20T23:23:38.140Z,36.88
2019-06-20T23:26:06.221Z,38.06
2019-06-20T23:28:32.389Z,37.84
2019-06-20T23:30:58.575Z,37.09
2019-06-20T23:33:24.730Z,36.52
2019-06-20T23:35:50.902Z,36.49
2019-06-20T23:38:17.090Z,36.55
2019-06-20T23:40:43.301Z,36.77
2019-06-20T23:43:09.469Z,37.80
2019-06-20T23:45:35.743Z,39.43
2019-06-20T23:48:01.913Z,39.35
2019-06-20T23:50:28.085Z,38.99
2019-06-20T23:52:58.949Z,37.96
2019-06-20T23:55:25.109Z,37.80
2019-06-20T23:57:51.282Z,37.57
